Time;durP1;ratioP1;P1;durP2;ratioP2;P2;SDS_P1;SDS_P2;PMS_P1;PMS_P2;Temp;Humidity;BMP_temperature;BMP_pressure;BME280_temperature;BME280_humidity;BME280_pressure;Samples;Min_cycle;Max_cycle;Signal;HPM_P1;HPM_P2
2022/03/02 00:02:20;;;;;;;19.43;10.47;;;;;;;1.18;100.00;60935.56;5114451;28;20452;-72
2022/03/02 00:04:47;;;;;;;20.70;11.03;;;;;;;0.55;100.00;60861.78;5114127;28;20440;-74
2022/03/02 00:07:15;;;;;;;20.57;11.23;;;;;;;1.36;100.00;60949.66;5095681;28;20544;-73
2022/03/02 00:09:43;;;;;;;19.20;11.07;;;;;;;1.42;100.00;60955.50;5113430;28;20982;-76
2022/03/02 00:12:11;;;;;;;20.77;11.10;;;;;;;1.37;100.00;60955.22;5113885;28;21018;-75
2022/03/02 00:14:42;;;;;;;18.30;11.23;;;;;;;1.36;100.00;60951.63;5114018;28;20820;-75
2022/03/02 00:17:10;;;;;;;23.53;11.67;;;;;;;1.31;100.00;60946.34;5095631;28;20527;-75
2022/03/02 00:19:41;;;;;;;19.03;11.07;;;;;;;1.47;100.00;60963.31;5113566;28;20918;-74
2022/03/02 00:22:11;;;;;;;22.23;12.20;;;;;;;1.23;100.00;60937.84;5095267;28;20485;-75
2022/03/02 00:24:40;;;;;;;22.07;11.90;;;;;;;1.27;100.00;60939.59;5113788;28;21073;-73
2022/03/02 00:27:07;;;;;;;22.50;12.13;;;;;;;1.22;100.00;60934.28;5113935;28;20457;-75
2022/03/02 00:29:34;;;;;;;21.30;12.10;;;;;;;1.30;100.00;60945.25;5114199;28;20441;-74
2022/03/02 00:32:01;;;;;;;24.53;13.17;;;;;;;-0.15;100.00;60793.16;5113538;28;20438;-74
2022/03/02 00:34:33;;;;;;;24.83;13.37;;;;;;;1.19;100.00;60934.13;5095200;28;20440;-73
2022/03/02 00:37:06;;;;;;;27.27;13.40;;;;;;;1.41;100.00;60959.97;5113492;28;20494;-76
2022/03/02 00:39:35;;;;;;;25.80;13.60;;;;;;;1.30;100.00;60947.78;5113172;28;20479;-74
2022/03/02 00:42:02;;;;;;;27.93;13.33;;;;;;;1.44;100.00;60958.16;5113128;28;21000;-75
2022/03/02 00:44:31;;;;;;;25.27;12.57;;;;;;;1.12;100.00;60926.16;5094870;28;20808;-74
2022/03/02 00:46:59;;;;;;;27.33;13.07;;;;;;;-0.19;100.00;60785.88;5113292;28;20975;-75
2022/03/02 00:49:29;;;;;;;23.70;12.27;;;;;;;0.96;100.00;60906.69;5113377;28;20501;-74
2022/03/02 00:52:02;;;;;;;19.67;11.53;;;;;;;0.70;100.00;60882.69;5113400;28;20437;-75
2022/03/02 00:54:32;;;;;;;22.63;11.23;;;;;;;-0.43;100.00;60772.97;5113505;28;20975;-76
2022/03/02 00:57:01;;;;;;;22.70;10.93;;;;;;;0.42;100.00;60848.00;5113266;28;20444;-73
2022/03/02 00:59:30;;;;;;;20.70;10.63;;;;;;;-0.52;100.00;60761.47;5112409;28;20653;-74
2022/03/02 01:01:59;;;;;;;21.57;11.33;;;;;;;0.78;100.00;60890.66;5113353;28;20459;-74
2022/03/02 01:04:28;;;;;;;20.30;10.47;;;;;;;0.84;100.00;60895.03;5112029;28;20947;-73
2022/03/02 01:06:58;;;;;;;17.60;10.70;;;;;;;0.84;100.00;60897.53;5112800;28;20498;-75
2022/03/02 01:09:32;;;;;;;21.37;11.07;;;;;;;-0.41;100.00;60767.59;5094562;28;20433;-73
2022/03/02 01:12:04;;;;;;;16.90;9.73;;;;;;;0.72;100.00;60884.81;5112781;28;20839;-74
2022/03/02 01:14:33;;;;;;;20.67;11.07;;;;;;;0.62;100.00;60876.72;5112769;28;20429;-75
2022/03/02 01:17:00;;;;;;;18.07;10.07;;;;;;;-0.10;100.00;60793.44;5112769;28;20441;-73
2022/03/02 01:19:30;;;;;;;22.83;10.53;;;;;;;0.66;100.00;60875.97;5093639;28;21042;-74
2022/03/02 01:21:58;;;;;;;19.03;10.27;;;;;;;0.59;100.00;60873.53;5112809;28;20472;-73
2022/03/02 01:24:27;;;;;;;16.37;9.93;;;;;;;-0.73;100.00;60731.75;5094080;28;20441;-75
2022/03/02 01:26:54;;;;;;;20.23;9.87;;;;;;;0.59;100.00;60873.53;5094584;28;20945;-75
2022/03/02 01:29:24;;;;;;;21.43;10.43;;;;;;;0.64;100.00;60881.34;5112454;28;20452;-75
2022/03/02 01:31:51;;;;;;;18.13;10.13;;;;;;;0.51;100.00;60862.56;5112652;28;20480;-76
2022/03/02 01:34:19;;;;;;;19.87;10.73;;;;;;;0.42;100.00;60855.53;5112468;28;20428;-75
2022/03/02 01:36:48;;;;;;;23.47;10.77;;;;;;;0.23;100.00;60834.84;5094276;28;20473;-75
2022/03/02 01:39:23;;;;;;;18.93;10.80;;;;;;;0.20;100.00;60827.19;5112085;28;20509;-75
2022/03/02 01:41:51;;;;;;;23.50;10.37;;;;;;;0.22;100.00;60828.78;5112630;28;20444;-75
2022/03/02 01:44:19;;;;;;;17.00;9.13;;;;;;;0.13;100.00;60819.78;5111616;28;20513;-75
2022/03/02 01:46:49;;;;;;;17.60;10.10;;;;;;;-0.09;100.00;60798.97;5112404;28;20433;-73
2022/03/02 01:49:19;;;;;;;16.73;9.60;;;;;;;0.09;100.00;60815.00;5112965;28;20464;-75
2022/03/02 01:51:49;;;;;;;16.53;9.23;;;;;;;0.15;100.00;60821.91;5112293;28;20433;-74
2022/03/02 01:54:16;;;;;;;19.40;10.43;;;;;;;-0.51;100.00;60752.00;5112321;28;20433;-75
2022/03/02 01:56:44;;;;;;;16.97;9.47;;;;;;;0.23;100.00;60830.38;5093855;28;20852;-74
2022/03/02 01:59:11;;;;;;;21.13;10.13;;;;;;;0.06;100.00;60824.34;5112520;28;20433;-73
2022/03/02 02:01:38;;;;;;;18.00;9.70;;;;;;;0.35;100.00;60843.09;5112121;28;20488;-74
2022/03/02 02:04:07;;;;;;;19.20;9.33;;;;;;;0.40;100.00;60853.41;5112189;28;20490;-73
2022/03/02 02:06:35;;;;;;;17.60;10.00;;;;;;;0.35;100.00;60843.09;5112457;28;20441;-75
2022/03/02 02:09:06;;;;;;;18.83;10.03;;;;;;;0.38;100.00;60846.28;5112232;28;20512;-74
2022/03/02 02:11:34;;;;;;;16.07;9.57;;;;;;;-0.99;100.00;60704.75;5112394;28;20450;-74
2022/03/02 02:14:05;;;;;;;20.00;9.73;;;;;;;0.15;100.00;60826.91;5113005;28;20437;-74
2022/03/02 02:16:32;;;;;;;19.13;10.00;;;;;;;0.18;100.00;60830.09;5112339;28;20433;-73
2022/03/02 02:18:59;;;;;;;15.17;9.77;;;;;;;-1.51;100.00;60652.22;5112066;28;20497;-74
2022/03/02 02:21:32;;;;;;;17.67;9.43;;;;;;;0.05;100.00;60815.78;5110938;28;21051;-74
2022/03/02 02:23:59;;;;;;;20.13;8.97;;;;;;;-1.90;100.00;60606.00;5111937;28;20491;-74
2022/03/02 02:26:26;;;;;;;17.93;8.73;;;;;;;-1.00;100.00;60708.69;5111622;28;20445;-74
2022/03/02 02:28:55;;;;;;;16.63;9.07;;;;;;;-1.20;100.00;60685.03;5111726;28;20440;-73
2022/03/02 02:31:24;;;;;;;16.57;9.40;;;;;;;-0.22;100.00;60787.72;5096949;28;20477;-75
2022/03/02 02:33:52;;;;;;;17.13;9.27;;;;;;;-0.24;100.00;60783.09;5116314;28;20455;-74
2022/03/02 02:36:20;;;;;;;17.80;8.97;;;;;;;-1.90;100.00;60610.97;5115507;28;20831;-76
2022/03/02 02:38:54;;;;;;;16.43;9.10;;;;;;;-0.29;100.00;60775.28;5115608;28;20447;-73
2022/03/02 02:41:26;;;;;;;14.43;8.07;;;;;;;-0.44;100.00;60759.94;5114808;28;20491;-73
2022/03/02 02:43:54;;;;;;;15.43;8.07;;;;;;;-0.22;100.00;60788.22;5115800;28;20838;-73
2022/03/02 02:46:21;;;;;;;13.57;7.90;;;;;;;-1.60;100.00;60647.69;5115488;28;20437;-76
2022/03/02 02:48:53;;;;;;;12.77;8.07;;;;;;;-0.30;100.00;60779.25;5115469;28;20462;-74
2022/03/02 02:51:24;;;;;;;14.10;8.27;;;;;;;-1.63;100.00;60634.56;5097146;28;20545;-74
2022/03/02 02:53:52;;;;;;;14.63;8.33;;;;;;;-0.29;100.00;60780.81;5115594;28;20436;-76
2022/03/02 02:56:22;;;;;;;15.23;8.33;;;;;;;-0.27;100.00;60777.41;5115720;28;20441;-75
2022/03/02 02:58:55;;;;;;;18.10;8.93;;;;;;;-0.26;100.00;60780.97;5116505;28;20452;-74
2022/03/02 03:01:24;;;;;;;23.97;8.67;;;;;;;-0.31;100.00;60773.16;5097810;28;20468;-76
2022/03/02 03:03:52;;;;;;;17.13;8.97;;;;;;;-0.28;100.00;60781.88;5116167;28;20437;-75
2022/03/02 03:06:21;;;;;;;15.00;8.27;;;;;;;-0.34;100.00;60775.00;5115045;28;20445;-74
2022/03/02 03:08:51;;;;;;;18.83;8.40;;;;;;;-0.33;100.00;60771.59;5116620;28;20433;-73
2022/03/02 03:11:23;;;;;;;13.00;7.67;;;;;;;-0.46;100.00;60759.78;5115106;28;20499;-75
2022/03/02 03:13:55;;;;;;;13.77;8.07;;;;;;;-0.55;100.00;60747.75;5114946;28;20445;-74
2022/03/02 03:16:22;;;;;;;13.00;7.20;;;;;;;-1.62;100.00;60637.56;5096841;28;20973;-75
2022/03/02 03:18:54;;;;;;;14.20;7.70;;;;;;;-0.42;100.00;60764.03;5114797;28;20468;-74
2022/03/02 03:21:22;;;;;;;15.43;7.97;;;;;;;-0.41;100.00;60763.13;5114124;28;20488;-75
2022/03/02 03:23:49;;;;;;;14.13;7.57;;;;;;;-0.49;100.00;60759.66;5114730;28;20483;-77
2022/03/02 03:26:16;;;;;;;17.20;7.67;;;;;;;-1.62;100.00;60635.59;5114470;28;20484;-74
2022/03/02 03:28:46;;;;;;;15.23;7.97;;;;;;;-0.41;100.00;60762.59;5117172;28;20552;-74
2022/03/02 03:31:17;;;;;;;17.20;8.40;;;;;;;-0.51;100.00;60752.00;5118094;28;20931;-73
2022/03/02 03:33:46;;;;;;;13.77;7.73;;;;;;;-0.38;100.00;60770.78;5098388;28;20451;-75
2022/03/02 03:36:20;;;;;;;17.27;8.07;;;;;;;-2.21;100.00;60583.22;5115256;28;20482;-72
2022/03/02 03:38:47;;;;;;;13.87;7.53;;;;;;;-2.43;100.00;60552.50;5114316;28;20461;-75
2022/03/02 03:41:16;;;;;;;15.10;7.90;;;;;;;-0.47;100.00;60758.72;5113682;28;20479;-76
2022/03/02 03:46:32;;;;;;;14.07;8.20;;;;;;;-1.23;100.00;60673.81;5114220;28;20963;-75
2022/03/02 03:49:02;;;;;;;17.53;7.77;;;;;;;-1.82;100.00;60614.44;5095979;28;20462;-74
2022/03/02 03:51:33;;;;;;;15.30;7.87;;;;;;;-1.93;100.00;60603.34;5114275;28;20448;-75
2022/03/02 03:54:02;;;;;;;13.07;6.87;;;;;;;-0.76;100.00;60726.06;5114198;28;20971;-74
2022/03/02 03:56:30;;;;;;;12.10;7.40;;;;;;;-0.73;100.00;60733.69;5113816;28;20509;-76
2022/03/02 03:59:05;;;;;;;11.70;6.87;;;;;;;-0.70;100.00;60736.88;5113853;28;20475;-74
2022/03/02 04:01:35;;;;;;;12.07;7.33;;;;;;;-0.54;100.00;60749.34;5114148;28;20472;-75
2022/03/02 04:04:03;;;;;;;13.40;7.27;;;;;;;-0.59;100.00;60746.03;5113866;28;20482;-76
2022/03/02 04:06:34;;;;;;;11.93;6.27;;;;;;;-0.77;100.00;60726.97;5114110;28;20469;-71
2022/03/02 04:09:02;;;;;;;10.33;6.67;;;;;;;-0.38;100.00;60768.25;5096259;28;20429;-73
2022/03/02 04:11:37;;;;;;;12.70;6.97;;;;;;;-0.84;100.00;60722.06;5113715;28;20985;-73
2022/03/02 04:14:09;;;;;;;12.43;6.87;;;;;;;-0.27;100.00;60782.41;5113349;28;20797;-72
2022/03/02 04:16:37;;;;;;;13.80;7.10;;;;;;;-1.74;100.00;60630.94;5113631;28;21055;-73
2022/03/02 04:19:05;;;;;;;11.83;7.47;;;;;;;-1.48;100.00;60649.88;5114563;28;20441;-74
2022/03/02 04:21:32;;;;;;;11.53;6.87;;;;;;;-1.06;100.00;60694.31;5114076;28;20987;-74
2022/03/02 04:24:00;;;;;;;14.50;7.33;;;;;;;-0.52;100.00;60755.94;5113662;28;20445;-74
2022/03/02 04:26:35;;;;;;;14.00;6.60;;;;;;;-0.51;100.00;60762.00;5113453;28;20448;-75
2022/03/02 04:29:15;;;;;;;15.27;7.27;;;;;;;-1.89;100.00;60607.56;5113928;28;20990;-76
2022/03/02 04:31:47;;;;;;;16.83;6.20;;;;;;;-0.44;100.00;60759.41;5114438;28;20444;-75
2022/03/02 04:34:19;;;;;;;14.27;7.03;;;;;;;-0.44;100.00;60761.91;5113719;28;20556;-75
2022/03/02 04:36:46;;;;;;;17.67;8.13;;;;;;;-0.51;100.00;60757.00;5113462;28;20532;-75
2022/03/02 04:39:17;;;;;;;18.50;9.70;;;;;;;-1.08;100.00;60697.72;5113222;28;20455;-74
2022/03/02 04:42:05;;;;;;;15.17;7.67;;;;;;;-0.57;100.00;60745.63;5113004;28;20573;-74
2022/03/02 04:44:32;;;;;;;13.50;6.67;;;;;;;-0.96;100.00;60707.91;5112789;28;20453;-72
2022/03/02 04:47:03;;;;;;;17.20;7.03;;;;;;;-0.38;100.00;60768.78;5113382;28;20814;-73
2022/03/02 04:49:31;;;;;;;12.73;7.33;;;;;;;-2.12;100.00;60582.75;5113985;28;20440;-75
2022/03/02 04:51:59;;;;;;;14.57;8.33;;;;;;;-0.24;100.00;60785.59;5094969;28;20441;-74
2022/03/02 04:57:15;;;;;;;13.90;7.60;;;;;;;-0.21;100.00;60791.81;5113382;28;20427;-74
2022/03/02 04:59:42;;;;;;;13.00;7.13;;;;;;;-0.13;100.00;60792.75;5113223;28;20445;-74
2022/03/02 05:02:12;;;;;;;12.63;7.27;;;;;;;-0.36;100.00;60772.88;5112851;28;20994;-74
2022/03/02 05:04:42;;;;;;;17.23;7.87;;;;;;;-0.18;100.00;60787.47;5095456;28;20441;-72
2022/03/02 05:07:09;;;;;;;13.23;7.77;;;;;;;-0.11;100.00;60794.34;5113053;28;20448;-74
2022/03/02 05:12:18;;;;;;;11.10;6.80;;;;;;;-0.80;100.00;60726.31;5112646;28;20998;-74
2022/03/02 05:14:52;;;;;;;11.80;7.57;;;;;;;0.14;100.00;60823.34;5113884;28;20433;-73
2022/03/02 05:17:23;;;;;;;11.97;7.53;;;;;;;-0.16;100.00;60791.56;5114452;28;20433;-73
2022/03/02 05:19:51;;;;;;;19.43;8.53;;;;;;;0.30;100.00;60842.81;5112405;28;20433;-75
2022/03/02 05:22:20;;;;;;;15.13;8.70;;;;;;;-1.00;100.00;60705.66;5094632;28;20480;-75
2022/03/02 05:24:47;;;;;;;16.03;7.93;;;;;;;0.40;100.00;60853.41;5112402;28;20536;-77
2022/03/02 05:27:14;;;;;;;14.00;7.97;;;;;;;0.06;100.00;60814.88;5112417;28;20433;-75
2022/03/02 05:29:42;;;;;;;15.00;8.80;;;;;;;0.42;100.00;60842.47;5112801;28;20468;-76
2022/03/02 05:32:11;;;;;;;16.20;8.27;;;;;;;0.39;100.00;60852.34;5112700;28;20445;-74
2022/03/02 05:34:39;;;;;;;14.23;8.13;;;;;;;0.46;100.00;60854.22;5094619;28;20464;-74
2022/03/02 05:37:08;;;;;;;16.33;8.57;;;;;;;0.21;100.00;60823.25;5112762;28;20433;-74
2022/03/02 05:39:44;;;;;;;13.20;7.67;;;;;;;0.29;100.00;60841.75;5094260;28;20440;-75
2022/03/02 05:42:11;;;;;;;14.87;8.00;;;;;;;0.23;100.00;60830.38;5112002;28;20885;-76
2022/03/02 05:44:38;;;;;;;15.23;7.60;;;;;;;0.38;100.00;60848.25;5112111;28;20488;-75
2022/03/02 05:47:07;;;;;;;17.57;7.07;;;;;;;0.36;100.00;60843.63;5111924;28;20877;-74
2022/03/02 05:49:38;;;;;;;16.37;7.33;;;;;;;0.48;100.00;60861.88;5112187;28;20433;-75
2022/03/02 05:52:21;;;;;;;13.33;7.77;;;;;;;0.51;100.00;60860.03;5112328;28;20500;-74
2022/03/02 05:54:50;;;;;;;14.67;6.77;;;;;;;-0.83;100.00;60718.13;5112205;28;20453;-75
2022/03/02 05:57:21;;;;;;;14.67;7.80;;;;;;;0.37;100.00;60845.22;5112101;28;20495;-75
2022/03/02 05:59:48;;;;;;;14.43;8.80;;;;;;;0.31;100.00;60841.34;5112791;28;20496;-74
2022/03/02 06:02:16;;;;;;;13.13;7.97;;;;;;;0.48;100.00;60856.88;5112077;28;20550;-74
2022/03/02 06:04:43;;;;;;;14.80;8.93;;;;;;;-1.38;100.00;60665.97;5112541;28;20445;-75
2022/03/02 06:07:17;;;;;;;14.37;8.30;;;;;;;0.46;100.00;60854.75;5115874;28;20486;-75
2022/03/02 06:09:49;;;;;;;15.80;9.07;;;;;;;0.49;100.00;60860.44;5116391;28;20493;-76
2022/03/02 06:12:16;;;;;;;21.43;8.13;;;;;;;-0.78;100.00;60728.94;5115986;28;20460;-74
2022/03/02 06:14:44;;;;;;;12.47;6.67;;;;;;;0.38;100.00;60851.28;5116013;28;20793;-75
2022/03/02 06:17:13;;;;;;;12.87;7.87;;;;;;;0.46;100.00;60859.75;5115344;28;20448;-75
2022/03/02 06:19:42;;;;;;;15.57;8.87;;;;;;;-0.84;100.00;60717.06;5115690;28;20433;-75
2022/03/02 06:22:17;;;;;;;14.97;8.13;;;;;;;0.53;100.00;60867.19;5116105;28;20930;-75
2022/03/02 06:24:48;;;;;;;15.53;7.23;;;;;;;0.44;100.00;60852.09;5116372;28;20516;-74
2022/03/02 06:27:21;;;;;;;14.23;8.40;;;;;;;-0.86;100.00;60717.97;5115022;28;20510;-73
2022/03/02 06:29:49;;;;;;;14.90;8.23;;;;;;;-1.17;100.00;60688.19;5116143;28;20444;-75
2022/03/02 06:32:18;;;;;;;14.83;8.70;;;;;;;0.58;100.00;60872.47;5115488;28;20477;-75
2022/03/02 06:34:47;;;;;;;17.97;9.47;;;;;;;0.79;100.00;60889.72;5115845;28;20501;-75
2022/03/02 06:37:26;;;;;;;15.70;8.53;;;;;;;0.92;100.00;60902.44;5115621;28;20797;-76
2022/03/02 06:39:54;;;;;;;14.73;7.60;;;;;;;0.87;100.00;60897.69;5115543;28;20444;-75
2022/03/02 06:42:25;;;;;;;16.23;9.13;;;;;;;1.02;100.00;60913.06;5115680;28;20480;-75
2022/03/02 06:44:56;;;;;;;15.50;9.37;;;;;;;1.10;100.00;60926.56;5116046;28;20420;-75
2022/03/02 06:47:27;;;;;;;17.17;9.20;;;;;;;1.18;100.00;60935.03;5097424;28;20451;-74
2022/03/02 06:50:06;;;;;;;15.00;8.93;;;;;;;1.19;100.00;60931.63;5115486;28;20441;-74
2022/03/02 06:52:39;;;;;;;18.07;9.20;;;;;;;1.06;100.00;60922.31;5115475;28;21035;-75
2022/03/02 06:55:17;;;;;;;16.90;9.70;;;;;;;1.08;100.00;60921.94;5115996;28;20524;-75
2022/03/02 06:57:54;;;;;;;18.50;8.80;;;;;;;1.25;100.00;60942.47;5115556;28;20425;-75
2022/03/02 07:00:25;;;;;;;16.90;9.77;;;;;;;1.19;100.00;60931.63;5114852;28;20509;-75
2022/03/02 07:03:11;;;;;;;19.47;10.53;;;;;;;0.93;100.00;60906.03;5097088;28;20566;-74
2022/03/02 07:05:46;;;;;;;15.40;9.07;;;;;;;1.34;100.00;60954.53;5114893;28;20441;-76
2022/03/02 07:08:19;;;;;;;18.33;9.83;;;;;;;1.29;100.00;60946.72;5115014;28;20923;-75
2022/03/02 07:10:47;;;;;;;19.20;8.77;;;;;;;1.18;100.00;60932.53;5115130;28;20486;-74
2022/03/02 07:13:15;;;;;;;18.40;10.07;;;;;;;1.41;100.00;60954.94;5114966;28;20875;-76
2022/03/02 07:15:42;;;;;;;18.83;9.70;;;;;;;0.27;100.00;60829.59;5114450;28;21012;-75
2022/03/02 07:18:14;;;;;;;17.30;9.47;;;;;;;1.44;100.00;60962.63;5114315;28;20483;-74
2022/03/02 07:20:47;;;;;;;16.03;9.47;;;;;;;-0.28;100.00;60781.34;5115180;28;20529;-75
2022/03/02 07:23:18;;;;;;;19.37;9.77;;;;;;;1.42;100.00;60956.03;5115231;28;20484;-76
2022/03/02 07:25:46;;;;;;;16.63;9.50;;;;;;;0.21;100.00;60837.72;5115293;28;20505;-75
2022/03/02 07:28:17;;;;;;;20.40;10.50;;;;;;;-0.03;100.00;60810.34;5115257;28;20449;-73
2022/03/02 07:30:46;;;;;;;18.63;10.03;;;;;;;1.43;100.00;60956.56;5115988;28;20815;-76
2022/03/02 07:36:01;;;;;;;19.13;10.33;;;;;;;1.47;100.00;60965.81;5114126;28;20452;-74
2022/03/02 07:38:35;;;;;;;21.17;10.40;;;;;;;1.46;100.00;60964.75;5116353;28;20941;-76
2022/03/02 07:41:07;;;;;;;20.83;10.47;;;;;;;1.69;100.00;60991.69;5115677;28;20957;-75
2022/03/02 07:43:46;;;;;;;20.60;11.13;;;;;;;1.86;100.00;61001.66;5114519;28;20433;-73
2022/03/02 07:46:15;;;;;;;21.93;10.77;;;;;;;1.86;100.00;60999.66;5114522;28;20435;-73
2022/03/02 07:48:43;;;;;;;18.40;10.90;;;;;;;1.90;100.00;61011.44;5113824;28;20501;-75
2022/03/02 07:51:12;;;;;;;21.73;12.00;;;;;;;1.92;100.00;61013.56;5114255;28;20437;-75
2022/03/02 07:53:45;;;;;;;20.97;11.67;;;;;;;1.03;100.00;60919.66;5114778;28;20489;-75
2022/03/02 07:56:14;;;;;;;23.90;12.63;;;;;;;2.34;100.00;61057.63;5114622;28;20449;-74
2022/03/02 07:58:42;;;;;;;22.40;11.90;;;;;;;2.36;100.00;61060.31;5114363;28;20444;-75
2022/03/02 08:01:17;;;;;;;23.13;12.13;;;;;;;2.37;100.00;61061.38;5114158;28;20825;-75
2022/03/02 08:03:47;;;;;;;21.20;11.97;;;;;;;2.65;100.00;61085.00;5113759;28;20456;-73
2022/03/02 08:06:17;;;;;;;22.80;12.73;;;;;;;2.73;100.00;61096.03;5114183;28;20429;-73
2022/03/02 08:08:50;;;;;;;26.63;11.97;;;;;;;2.72;100.00;61097.50;5113933;28;20490;-73
2022/03/02 08:14:07;;;;;;;23.07;12.17;;;;;;;2.65;100.00;61085.00;5113397;28;20445;-74
2022/03/02 08:16:35;;;;;;;21.93;12.50;;;;;;;2.74;100.00;61097.63;5114240;28;20421;-73
2022/03/02 08:19:04;;;;;;;20.60;11.97;;;;;;;2.74;100.00;61094.59;5114434;28;20803;-73
2022/03/02 08:21:35;;;;;;;22.23;12.27;;;;;;;2.77;100.00;61103.34;5113359;28;20488;-72
2022/03/02 08:24:09;;;;;;;22.20;12.53;;;;;;;2.89;100.00;61115.53;5113637;28;20521;-74
2022/03/02 08:26:39;;;;;;;21.00;11.67;;;;;;;1.77;100.00;60992.09;5116326;28;20452;-74
2022/03/02 08:29:12;;;;;;;26.47;13.03;;;;;;;2.83;100.00;61109.16;5116621;28;20449;-74
2022/03/02 08:31:49;;;;;;;27.37;14.27;;;;;;;2.86;100.00;61112.38;5122572;28;20963;-75
2022/03/02 08:34:18;;;;;;;22.37;12.40;;;;;;;2.69;100.00;61091.78;5119525;28;20436;-74
2022/03/02 08:36:48;;;;;;;22.83;12.80;;;;;;;2.93;100.00;61119.78;5123565;28;20467;-74
2022/03/02 08:39:25;;;;;;;23.27;13.43;;;;;;;1.82;100.00;61002.97;5118425;28;20425;-73
2022/03/02 08:42:02;;;;;;;23.27;13.37;;;;;;;3.21;100.00;61144.53;5114906;28;20484;-74
2022/03/02 08:44:31;;;;;;;26.33;13.53;;;;;;;2.83;100.00;61104.69;5098214;28;20966;-75
2022/03/02 08:47:01;;;;;;;23.47;13.50;;;;;;;3.66;100.00;61197.41;5115290;28;20437;-74
2022/03/02 08:49:28;;;;;;;24.57;13.47;;;;;;;3.66;100.00;61191.84;5115199;28;20457;-75
2022/03/02 08:51:59;;;;;;;24.33;12.97;;;;;;;2.42;100.00;61066.66;5114887;28;20916;-76
2022/03/02 08:54:29;;;;;;;26.23;12.10;;;;;;;2.78;100.00;61108.91;5115689;28;20432;-73
2022/03/02 08:57:02;;;;;;;23.83;12.70;;;;;;;3.88;100.00;61215.78;5113836;28;20436;-75
2022/03/02 08:59:33;;;;;;;22.50;12.33;;;;;;;3.88;100.00;61210.22;5112738;28;20440;-73
2022/03/02 09:02:04;;;;;;;34.17;15.90;;;;;;;4.19;100.00;61248.75;5113753;28;21021;-75
2022/03/02 09:04:35;;;;;;;26.77;13.37;;;;;;;4.45;100.00;61275.38;5096721;28;20480;-76
2022/03/02 09:07:04;;;;;;;25.47;13.40;;;;;;;4.60;100.00;61291.88;5114784;28;20473;-75
2022/03/02 09:09:35;;;;;;;25.33;13.30;;;;;;;4.42;100.00;61274.69;5114005;28;20445;-76
2022/03/02 09:12:05;;;;;;;25.20;13.17;;;;;;;4.49;100.00;61282.16;5094854;28;21002;-75
2022/03/02 09:14:33;;;;;;;27.60;14.03;;;;;;;4.82;100.00;61317.81;5112071;28;20456;-74
2022/03/02 09:17:06;;;;;;;24.53;13.90;;;;;;;4.17;100.00;61254.19;5113655;28;20437;-73
2022/03/02 09:19:33;;;;;;;33.07;15.43;;;;;;;4.68;100.00;61305.44;5113540;28;20451;-76
2022/03/02 09:22:04;;;;;;;24.57;14.03;;;;;;;4.96;100.00;61329.66;5113385;28;20481;-75
2022/03/02 09:24:35;;;;;;;26.93;15.23;;;;;;;4.53;100.00;61286.41;5096089;28;20441;-73
2022/03/02 09:27:08;;;;;;;28.87;15.87;;;;;;;5.05;100.00;61339.25;5095595;28;20535;-72
2022/03/02 09:29:38;;;;;;;25.73;14.33;;;;;;;3.93;100.00;61223.63;5115330;28;20445;-75
2022/03/02 09:32:14;;;;;;;29.80;15.17;;;;;;;4.19;100.00;61250.75;5114706;28;20453;-75
2022/03/02 09:34:55;;;;;;;31.97;14.60;;;;;;;6.03;100.00;61448.25;5113949;28;20947;-75
2022/03/02 09:37:28;;;;;;;26.70;13.93;;;;;;;6.40;100.00;61482.13;5113388;28;20484;-75
2022/03/02 09:40:08;;;;;;;26.67;14.60;;;;;;;6.73;100.00;61517.31;5111352;28;20828;-76
2022/03/02 09:42:43;;;;;;;25.07;13.13;;;;;;;6.74;100.00;61518.38;5114403;28;20950;-74
2022/03/02 09:45:12;;;;;;;22.33;12.47;;;;;;;6.44;100.00;61486.38;5096081;28;20432;-74
2022/03/02 09:47:46;;;;;;;18.13;11.20;;;;;;;6.81;100.00;61528.38;5094921;28;20441;-75
2022/03/02 09:50:17;;;;;;;23.27;12.40;;;;;;;6.46;100.00;61494.09;5112076;28;20480;-74
2022/03/02 09:52:51;;;;;;;24.80;13.13;;;;;;;6.78;100.00;61522.66;5112340;28;20452;-73
2022/03/02 09:55:37;;;;;;;22.80;13.63;;;;;;;6.92;100.00;61542.66;5114857;28;20440;-73
2022/03/02 09:58:14;;;;;;;18.07;11.33;;;;;;;6.66;100.00;61514.91;5113664;28;20459;-76
2022/03/02 10:00:50;;;;;;;18.87;11.67;;;;;;;6.56;100.00;61501.72;5113821;28;20943;-75
2022/03/02 10:06:05;;;;;;;17.53;11.33;;;;;;;6.46;100.00;61488.50;5109819;28;20457;-76
2022/03/02 10:08:46;;;;;;;19.93;11.53;;;;;;;6.70;100.00;61519.19;5112434;28;20421;-74
2022/03/02 10:11:19;;;;;;;20.60;11.63;;;;;;;6.84;100.00;61526.53;5113937;28;20527;-76
2022/03/02 10:13:47;;;;;;;17.43;10.03;;;;;;;6.42;100.00;61484.75;5113892;28;20521;-77
2022/03/02 10:16:26;;;;;;;22.13;12.90;;;;;;;6.87;100.00;61534.78;5112321;28;20514;-74
2022/03/02 10:18:57;;;;;;;22.90;12.90;;;;;;;7.13;100.00;61562.53;5112149;28;20890;-77
2022/03/02 10:21:31;;;;;;;23.47;12.20;;;;;;;7.61;100.00;61613.78;5094379;28;20529;-75
2022/03/02 10:24:03;;;;;;;20.10;12.33;;;;;;;7.96;100.00;61650.09;5113376;28;20483;-76
2022/03/02 10:26:36;;;;;;;33.27;13.47;;;;;;;8.42;100.00;61696.75;5094891;28;20447;-76
2022/03/02 10:29:10;;;;;;;22.13;10.93;;;;;;;8.47;100.00;61704.63;5113250;28;20979;-76
2022/03/02 10:31:45;;;;;;;20.73;12.57;;;;;;;7.64;100.00;61619.53;5112247;28;20433;-76
2022/03/02 10:34:45;;;;;;;14.43;9.83;;;;;;;8.70;100.00;61731.22;5095442;28;20444;-73
2022/03/02 10:37:40;;;;;;;18.10;11.17;;;;;;;8.64;100.00;61717.72;5112169;28;20439;-75
2022/03/02 10:40:18;;;;;;;20.07;11.27;;;;;;;7.33;100.00;61578.81;5112418;28;20472;-77
2022/03/02 10:43:07;;;;;;;24.27;12.10;;;;;;;7.54;100.00;61608.84;5111883;28;20551;-75
2022/03/02 10:45:42;;;;;;;21.73;12.70;;;;;;;7.42;100.00;61590.97;5112656;28;20498;-76
2022/03/02 10:48:21;;;;;;;17.00;9.93;;;;;;;6.09;100.00;61444.00;5112736;28;20433;-77
2022/03/02 10:50:59;;;;;;;13.50;9.37;;;;;;;7.89;100.00;61640.63;5114090;28;20511;-76
2022/03/02 10:53:30;;;;;;;15.43;8.33;;;;;;;7.84;100.00;61637.28;5116215;28;20497;-77
2022/03/02 10:55:59;;;;;;;13.33;8.77;;;;;;;8.30;100.00;61683.91;5098984;28;20536;-77
2022/03/02 11:01:58;;;;;;;15.20;10.17;;;;;;;8.23;100.00;61681.50;5114563;28;20429;-77
2022/03/02 11:04:27;;;;;;;16.70;10.10;;;;;;;8.18;100.00;61671.06;5097267;28;20563;-75
2022/03/02 11:06:59;;;;;;;18.70;10.83;;;;;;;7.92;100.00;61648.91;5115360;28;20444;-76
2022/03/02 11:09:28;;;;;;;21.50;9.40;;;;;;;6.86;100.00;61533.72;5115037;28;20440;-76
2022/03/02 11:11:56;;;;;;;16.70;9.97;;;;;;;5.14;100.00;61348.84;5115027;28;20475;-76
2022/03/02 11:14:30;;;;;;;17.37;10.73;;;;;;;6.43;100.00;61485.31;5116338;28;20502;-76
2022/03/02 11:17:16;;;;;;;18.30;11.03;;;;;;;6.70;100.00;61519.19;5115846;28;20459;-76
2022/03/02 11:19:49;;;;;;;21.47;12.10;;;;;;;7.36;100.00;61587.09;5116050;28;20449;-77
2022/03/02 11:22:23;;;;;;;16.23;10.53;;;;;;;6.62;100.00;61508.13;5115988;28;20464;-75
2022/03/02 11:24:58;;;;;;;15.13;9.37;;;;;;;6.67;100.00;61521.03;5115554;28;20978;-74
2022/03/02 11:27:32;;;;;;;18.10;9.73;;;;;;;8.07;100.00;61664.41;5116035;28;20440;-75
2022/03/02 11:30:18;;;;;;;13.83;9.17;;;;;;;7.28;100.00;61575.47;5115984;28;20433;-74
2022/03/02 11:32:50;;;;;;;17.97;10.37;;;;;;;5.84;100.00;61423.47;5119937;28;20510;-74
2022/03/02 11:35:21;;;;;;;17.33;10.83;;;;;;;5.77;100.00;61417.97;5132377;28;20425;-75
2022/03/02 11:37:57;;;;;;;14.90;9.40;;;;;;;7.27;100.00;61580.00;5121510;28;20425;-75
2022/03/02 11:40:48;;;;;;;13.37;9.37;;;;;;;8.55;100.00;61715.72;5122754;28;20864;-76
2022/03/02 11:43:20;;;;;;;17.87;9.60;;;;;;;8.84;100.00;61744.19;5103753;28;21040;-75
2022/03/02 11:45:47;;;;;;;17.40;10.17;;;;;;;7.55;100.00;61609.91;5116083;28;20554;-74
2022/03/02 11:48:17;;;;;;;17.97;10.67;;;;;;;7.25;100.00;61572.81;5114252;28;20440;-75
2022/03/02 11:51:06;;;;;;;13.97;9.07;;;;;;;6.66;100.00;61512.38;5114548;28;20429;-74
2022/03/02 11:53:35;;;;;;;15.00;9.23;;;;;;;5.13;100.00;61355.34;5096775;28;20440;-76
2022/03/02 11:56:10;;;;;;;17.60;9.77;;;;;;;6.76;100.00;61525.59;5116851;28;20532;-74
2022/03/02 11:59:02;;;;;;;17.50;8.77;;;;;;;6.82;100.00;61526.91;5096306;28;20448;-74